Terminal Aerodrome Forecast
Issued by NWS Topeka, KS

Home | Current Version | Previous Version | Text Only | Print | Product List | Glossary On
Versions: 1 2 3 4 5 6 7 8 9 10 11 12 13 14 15 16 17 18
451
FTUS43 KTOP 231125
TAFTOP
TAF
KTOP 231125Z 2312/2412 32009KT P6SM VCSH BKN070
     FM231400 33010KT P6SM BKN150
     FM231900 32013KT P6SM VCSH BKN070
     FM240100 32006KT P6SM BKN040=

USA.gov is the U.S. government's official web portal to all federal, state and local government web resources and services.